createdAt,value
2022-10-12T00:00:19.541Z,4.00
2022-10-12T00:05:24.586Z,4.00
2022-10-12T00:10:28.032Z,3.90
2022-10-12T00:15:31.112Z,3.80
2022-10-12T00:20:35.724Z,4.00
2022-10-12T00:25:39.903Z,3.90
2022-10-12T00:30:43.033Z,3.90
2022-10-12T00:35:47.620Z,4.00
2022-10-12T00:40:50.962Z,3.80
2022-10-12T00:45:55.075Z,3.80
2022-10-12T00:51:02.915Z,3.80
2022-10-12T00:56:11.366Z,3.80
2022-10-12T01:01:14.861Z,3.60
2022-10-12T01:06:20.132Z,3.60
2022-10-12T01:11:23.709Z,3.70
2022-10-12T01:16:33.273Z,3.60
2022-10-12T01:21:43.908Z,3.50
2022-10-12T01:27:03.044Z,3.50
2022-10-12T01:32:17.809Z,3.60
2022-10-12T01:37:29.143Z,3.40
2022-10-12T01:42:37.137Z,3.30
2022-10-12T01:47:44.157Z,3.40
2022-10-12T01:52:57.439Z,3.50
2022-10-12T01:58:23.326Z,3.50
2022-10-12T02:03:36.565Z,3.40
2022-10-12T02:08:44.888Z,3.20
2022-10-12T02:13:53.428Z,3.20
2022-10-12T02:18:59.948Z,3.30
2022-10-12T02:24:06.051Z,3.30
2022-10-12T02:29:14.177Z,3.40
2022-10-12T02:34:22.548Z,3.40
2022-10-12T02:39:31.242Z,3.40
2022-10-12T02:44:38.905Z,3.30
2022-10-12T02:49:46.146Z,3.30
2022-10-12T02:54:49.659Z,3.30
2022-10-12T02:59:53.335Z,3.20
2022-10-12T03:04:57.853Z,3.10
2022-10-12T03:10:01.092Z,3.10
2022-10-12T03:15:05.291Z,3.10
2022-10-12T03:20:11.107Z,3.00
2022-10-12T03:25:14.352Z,3.10
2022-10-12T03:30:17.907Z,3.00
2022-10-12T03:35:23.138Z,2.90
2022-10-12T03:40:26.342Z,2.90
2022-10-12T03:45:29.649Z,3.00
2022-10-12T03:50:35.077Z,3.00
2022-10-12T03:55:38.281Z,3.10
2022-10-12T04:00:42.201Z,3.10
2022-10-12T04:05:52.872Z,3.00
2022-10-12T04:10:56.183Z,3.10
2022-10-12T04:16:02.451Z,2.80
2022-10-12T04:21:11.009Z,2.90
2022-10-12T04:26:14.582Z,2.90
2022-10-12T04:31:17.648Z,2.70
2022-10-12T04:36:22.069Z,2.70
2022-10-12T04:41:25.105Z,2.70
2022-10-12T04:46:28.339Z,2.90
2022-10-12T04:51:33.098Z,2.80
2022-10-12T04:56:36.805Z,2.80
2022-10-12T05:01:40.042Z,2.80
2022-10-12T05:06:44.774Z,2.60
2022-10-12T05:11:48.221Z,2.50
2022-10-12T05:16:51.281Z,2.50
2022-10-12T05:21:55.771Z,2.60
2022-10-12T05:26:59.347Z,2.60
2022-10-12T05:32:02.329Z,2.60
2022-10-12T05:37:07.082Z,2.70
2022-10-12T05:42:10.455Z,2.80
2022-10-12T05:47:14.090Z,2.70
2022-10-12T05:52:18.715Z,2.70
2022-10-12T05:57:22.045Z,2.80
2022-10-12T06:02:25.124Z,3.00
2022-10-12T06:07:29.675Z,3.20
2022-10-12T06:12:33.309Z,3.30
2022-10-12T06:17:36.517Z,3.50
2022-10-12T06:22:41.441Z,3.70
2022-10-12T06:27:45.161Z,3.70
2022-10-12T06:32:48.282Z,3.90
2022-10-12T06:37:53.745Z,4.10
2022-10-12T06:42:58.684Z,4.30
2022-10-12T06:48:02.163Z,4.40
2022-10-12T06:53:06.796Z,4.50
2022-10-12T06:58:09.973Z,4.70
2022-10-12T07:03:14.302Z,4.90
2022-10-12T07:08:19.654Z,5.30
2022-10-12T07:13:23.260Z,6.30
2022-10-12T07:18:27.237Z,8.00
2022-10-12T07:23:33.507Z,10.10
2022-10-12T07:28:37.194Z,11.30
2022-10-12T07:33:40.435Z,12.50
2022-10-12T07:38:45.605Z,13.30
2022-10-12T07:43:53.906Z,14.50
2022-10-12T07:48:57.898Z,15.00
2022-10-12T07:54:02.743Z,14.50
2022-10-12T07:59:06.016Z,14.60
2022-10-12T08:04:10.235Z,15.20
2022-10-12T08:09:14.837Z,15.70
2022-10-12T08:14:18.062Z,15.40
2022-10-12T08:19:21.652Z,16.20
2022-10-12T08:24:26.163Z,15.80
2022-10-12T08:29:29.453Z,16.80
2022-10-12T08:34:32.597Z,17.60
2022-10-12T08:39:37.475Z,17.80
2022-10-12T08:44:52.945Z,18.20
2022-10-12T08:49:56.271Z,19.80
2022-10-12T08:55:06.817Z,19.80
2022-10-12T09:00:13.750Z,20.60
2022-10-12T09:05:22.948Z,21.00
2022-10-12T09:10:39.999Z,20.60
2022-10-12T09:15:49.244Z,20.00
2022-10-12T09:20:54.016Z,20.80
2022-10-12T09:26:06.954Z,20.70
2022-10-12T09:31:27.516Z,20.40
2022-10-12T09:36:34.909Z,19.30
2022-10-12T09:41:42.466Z,17.50
2022-10-12T09:46:51.315Z,16.60
2022-10-12T09:51:59.916Z,16.10
2022-10-12T09:57:04.616Z,15.80
2022-10-12T10:02:15.946Z,15.60
2022-10-12T10:07:27.500Z,15.30
2022-10-12T10:12:32.643Z,15.00
2022-10-12T10:17:36.187Z,14.90
2022-10-12T10:22:47.941Z,15.00
2022-10-12T10:28:11.272Z,15.00
2022-10-12T10:33:17.432Z,15.10
2022-10-12T10:38:20.731Z,15.10
2022-10-12T10:43:29.087Z,15.10
2022-10-12T10:48:51.020Z,15.20
2022-10-12T10:53:54.489Z,15.30
2022-10-12T10:59:09.658Z,15.70
2022-10-12T11:04:16.795Z,15.70
2022-10-12T11:09:23.419Z,16.00
2022-10-12T11:14:34.467Z,17.00
2022-10-12T11:19:42.413Z,16.60
2022-10-12T11:24:50.114Z,16.50
2022-10-12T11:30:09.027Z,16.40
2022-10-12T11:35:16.630Z,16.50
2022-10-12T11:40:47.733Z,16.40
2022-10-12T11:45:53.496Z,16.20
2022-10-12T11:51:03.901Z,16.60
2022-10-12T11:56:14.873Z,16.90
2022-10-12T12:01:43.591Z,18.70
2022-10-12T12:06:53.486Z,19.00
2022-10-12T12:12:12.969Z,18.40
2022-10-12T12:17:29.456Z,17.30
2022-10-12T12:22:51.150Z,17.20
2022-10-12T12:27:56.277Z,16.50
2022-10-12T12:33:03.105Z,16.10
2022-10-12T12:38:20.455Z,16.50
2022-10-12T12:43:38.469Z,16.30
2022-10-12T12:49:03.235Z,15.90
2022-10-12T12:54:15.555Z,16.20
2022-10-12T13:00:04.170Z,17.10
2022-10-12T13:05:33.934Z,18.90
2022-10-12T13:11:00.391Z,19.10
2022-10-12T13:16:36.551Z,19.90
2022-10-12T13:45:07.531Z,19.00
2022-10-12T13:50:19.378Z,18.60
2022-10-12T13:55:26.405Z,18.50
2022-10-12T14:00:30.387Z,17.60
2022-10-12T14:05:44.382Z,16.90
2022-10-12T14:41:32.736Z,14.90
2022-10-12T14:46:37.083Z,14.80
2022-10-12T14:51:40.584Z,14.80
2022-10-12T14:56:45.204Z,14.70
2022-10-12T15:01:51.452Z,14.50
2022-10-12T15:06:55.051Z,14.50
2022-10-12T15:11:59.758Z,14.40
2022-10-12T15:17:03.472Z,14.20
2022-10-12T15:22:07.220Z,14.10
2022-10-12T15:27:12.029Z,13.90
2022-10-12T15:32:17.599Z,13.70
2022-10-12T15:37:20.808Z,13.40
2022-10-12T15:42:25.277Z,13.10
2022-10-12T16:10:13.802Z,10.90
2022-10-12T16:15:19.527Z,10.40
2022-10-12T16:20:23.805Z,10.20
2022-10-12T16:25:28.583Z,10.00
2022-10-12T16:30:32.044Z,9.90
2022-10-12T16:35:35.566Z,9.60
2022-10-12T16:40:40.225Z,9.20
2022-10-12T16:45:43.457Z,8.90
2022-10-12T16:50:46.715Z,8.60
2022-10-12T16:55:51.561Z,8.60
2022-10-12T17:00:54.936Z,8.40
2022-10-12T17:05:59.184Z,8.10
2022-10-12T17:11:07.300Z,7.90
2022-10-12T17:16:33.628Z,7.70
2022-10-12T17:21:41.988Z,7.60
2022-10-12T17:26:47.656Z,7.50
2022-10-12T17:31:51.962Z,7.40
2022-10-12T17:36:57.952Z,7.50
2022-10-12T17:42:02.650Z,7.50
2022-10-12T17:47:06.723Z,7.30
2022-10-12T17:52:10.535Z,7.10
2022-10-12T17:57:17.106Z,6.90
2022-10-12T18:02:22.332Z,6.80
2022-10-12T18:07:26.184Z,6.60
2022-10-12T18:12:31.265Z,6.60
2022-10-12T18:17:35.897Z,6.50
2022-10-12T18:22:39.594Z,6.40
2022-10-12T18:27:44.724Z,6.50
2022-10-12T18:32:48.066Z,6.40
2022-10-12T18:37:51.299Z,6.30
2022-10-12T18:42:55.800Z,6.10
2022-10-12T18:47:59.275Z,6.10
2022-10-12T18:53:02.547Z,6.10
2022-10-12T18:58:07.257Z,6.10
2022-10-12T19:03:12.823Z,6.00
2022-10-12T19:08:15.912Z,5.90
2022-10-12T19:13:20.431Z,5.90
2022-10-12T19:18:23.614Z,5.90
2022-10-12T19:23:28.647Z,5.90
2022-10-12T19:28:34.252Z,5.80
2022-10-12T19:33:38.082Z,5.80
2022-10-12T19:38:41.583Z,5.70
2022-10-12T19:43:46.433Z,5.70
2022-10-12T19:48:51.496Z,5.60
2022-10-12T19:53:55.261Z,5.50
2022-10-12T19:59:00.037Z,5.70
2022-10-12T20:04:07.208Z,5.60
2022-10-12T20:09:10.842Z,5.50
2022-10-12T20:14:15.780Z,5.40
2022-10-12T20:19:19.091Z,5.40
2022-10-12T20:24:22.341Z,5.40
2022-10-12T20:29:31.855Z,5.30
2022-10-12T20:34:35.147Z,5.20
2022-10-12T20:39:38.336Z,5.20
2022-10-12T20:44:42.786Z,5.20
2022-10-12T20:49:47.317Z,5.20
2022-10-12T20:54:52.138Z,5.10
2022-10-12T20:59:56.753Z,5.20
2022-10-12T21:05:00.760Z,5.20
2022-10-12T21:10:04.729Z,5.10
2022-10-12T21:15:10.611Z,5.10
2022-10-12T21:20:13.901Z,5.10
2022-10-12T21:25:17.462Z,5.10
2022-10-12T21:30:22.010Z,5.00
2022-10-12T21:35:25.458Z,5.00
2022-10-12T21:40:28.549Z,4.90
2022-10-12T21:45:33.845Z,4.90
2022-10-12T21:50:37.013Z,4.80
2022-10-12T21:55:40.156Z,4.80
2022-10-12T22:00:45.094Z,4.80
2022-10-12T22:05:48.499Z,4.70
2022-10-12T22:10:52.036Z,4.70
2022-10-12T22:16:04.004Z,4.60
2022-10-12T22:21:09.531Z,4.60
2022-10-12T22:26:15.152Z,4.60
2022-10-12T22:31:31.020Z,4.50
2022-10-12T22:36:34.158Z,4.50
2022-10-12T22:41:38.564Z,4.50
2022-10-12T22:46:42.957Z,4.40
2022-10-12T22:51:46.101Z,4.30
2022-10-12T22:56:51.293Z,4.30
2022-10-12T23:01:55.738Z,4.30
2022-10-12T23:07:01.481Z,4.30
2022-10-12T23:12:05.552Z,4.20
2022-10-12T23:17:10.066Z,4.20
2022-10-12T23:22:13.331Z,4.20
2022-10-12T23:27:16.911Z,4.20
2022-10-12T23:32:22.093Z,4.10
2022-10-12T23:37:25.258Z,4.10
2022-10-12T23:42:28.728Z,4.10
2022-10-12T23:47:33.601Z,4.00
2022-10-12T23:52:36.631Z,4.10
2022-10-12T23:57:47.105Z,4.10
